Nestor — V2FB3 — position and weather

sailwx.info

Track history (hours):
 
Tides and Currents Weather Stations Pressure Air Temp Water Temp Dewpoint Dewpoint Depression Visibility Wind Speed Wind Dir Waves Ship Positions

Nestor

Last reported at 2015-Jan-20 12:33 UTC. Time now 2015-Jan-25 12:19 UTC.
Position N 36°53' E 013°41'.

Length 88 m; draft 5.7 m.

Type: Cargo ship. MMSI: 305620000.

Date/timePositionNaut miles runAvg speedWind from/ knotsBaromVisibWave heightAir tempDewpointWater temp
2015-Jan-20 12:33N 36°53' E 013°41'8 8.5
2015-Jan-20 11:33N 36°51' E 013°52'8 8.3
2015-Jan-20 10:34N 36°48' E 014°01'8 8.1
2015-Jan-20 09:34N 36°46' E 014°11'8 8.3
2015-Jan-20 08:34N 36°43' E 014°21'9 8.6
2015-Jan-20 07:33N 36°41' E 014°31'  
2015-Jan-17 20:32N 36°26' E 023°14'68 8.5
2015-Jan-17 12:28N 37°25' E 023°58'92 8.2
2015-Jan-17 01:18N 38°41' E 025°02'  
2015-Jan-13 04:13N 39°24' E 025°36'12 1.7
2015-Jan-12 21:23N 39°13' E 025°29'36 2.5
2015-Jan-12 07:13N 38°42' E 025°07'49 8.5
2015-Jan-12 01:29N 37°58' E 024°39'8 8.2
2015-Jan-12 00:33N 37°53' E 024°32'10 8.3
2015-Jan-11 23:21N 37°47' E 024°22'8 8.2
2015-Jan-11 22:25N 37°42' E 024°15'7 7.9
2015-Jan-11 21:33N 37°36' E 024°10'8 6.2
2015-Jan-11 20:18N 37°33' E 024°01'14 7.8
2015-Jan-11 18:30N 37°39' E 023°44'8 8.0
2015-Jan-11 17:33N 37°45' E 023°39'9 8.6
2015-Jan-11 16:33N 37°54' E 023°36'  
Track history (hours):
 
Tides and Currents Weather Stations Pressure Air Temp Water Temp Dewpoint Dewpoint Depression Visibility Wind Speed Wind Dir Waves Ship Positions

Nestor

Last reported at 2015-Jan-20 12:33 UTC. Time now 2015-Jan-25 12:19 UTC.
Position N 36°53' E 013°41'.

Length 88 m; draft 5.7 m.

Type: Cargo ship. MMSI: 305620000.

Date/timePositionNaut miles runAvg speedWind from/ knotsBaromVisibWave heightAir tempDewpointWater temp
2015-Jan-20 12:33N 36°53' E 013°41'8 8.5
2015-Jan-20 11:33N 36°51' E 013°52'8 8.3
2015-Jan-20 10:34N 36°48' E 014°01'8 8.1
2015-Jan-20 09:34N 36°46' E 014°11'8 8.3
2015-Jan-20 08:34N 36°43' E 014°21'9 8.6
2015-Jan-20 07:33N 36°41' E 014°31'  
2015-Jan-17 20:32N 36°26' E 023°14'68 8.5
2015-Jan-17 12:28N 37°25' E 023°58'92 8.2
2015-Jan-17 01:18N 38°41' E 025°02'  
2015-Jan-13 04:13N 39°24' E 025°36'12 1.7
2015-Jan-12 21:23N 39°13' E 025°29'36 2.5
2015-Jan-12 07:13N 38°42' E 025°07'49 8.5
2015-Jan-12 01:29N 37°58' E 024°39'8 8.2
2015-Jan-12 00:33N 37°53' E 024°32'10 8.3
2015-Jan-11 23:21N 37°47' E 024°22'8 8.2
2015-Jan-11 22:25N 37°42' E 024°15'7 7.9
2015-Jan-11 21:33N 37°36' E 024°10'8 6.2
2015-Jan-11 20:18N 37°33' E 024°01'14 7.8
2015-Jan-11 18:30N 37°39' E 023°44'8 8.0
2015-Jan-11 17:33N 37°45' E 023°39'9 8.6
2015-Jan-11 16:33N 37°54' E 023°36'  

Dump ship's entire track history